createdAt,value
2023-05-15T00:02:14.470Z,54.13
2023-05-15T00:04:42.196Z,54.20
2023-05-15T00:07:10.420Z,54.27
2023-05-15T00:09:38.026Z,54.38
2023-05-15T00:12:05.864Z,54.53
2023-05-15T00:14:33.643Z,54.48
2023-05-15T00:17:01.313Z,54.47
2023-05-15T00:19:28.967Z,54.67
2023-05-15T00:21:56.899Z,54.73
2023-05-15T00:24:24.519Z,55.10
2023-05-15T00:26:52.409Z,55.24
2023-05-15T00:29:20.141Z,55.29
2023-05-15T00:31:48.124Z,55.40
2023-05-15T00:34:15.942Z,55.58
2023-05-15T00:36:44.267Z,55.51
2023-05-15T00:39:12.238Z,55.74
2023-05-15T00:41:41.959Z,55.87
2023-05-15T00:44:11.483Z,55.92
2023-05-15T00:46:40.298Z,55.83
2023-05-15T00:49:13.587Z,55.77
2023-05-15T00:51:42.468Z,55.64
2023-05-15T00:54:11.504Z,56.16
2023-05-15T00:56:40.481Z,56.15
2023-05-15T00:59:08.340Z,55.73
2023-05-15T01:01:36.301Z,56.21
2023-05-15T01:04:04.628Z,56.30
2023-05-15T01:06:33.055Z,56.24
2023-05-15T01:09:04.212Z,56.69
2023-05-15T01:11:36.565Z,56.47
2023-05-15T01:14:06.672Z,56.63
2023-05-15T01:16:36.234Z,56.71
2023-05-15T01:19:05.522Z,56.68
2023-05-15T01:21:39.245Z,57.25
2023-05-15T01:24:48.266Z,57.82
2023-05-15T01:27:21.484Z,57.41
2023-05-15T01:30:27.651Z,56.60
2023-05-15T01:33:19.798Z,57.44
2023-05-15T01:36:12.849Z,57.93
2023-05-15T01:38:49.088Z,57.97
2023-05-15T01:41:22.661Z,57.12
2023-05-15T01:43:56.737Z,57.57
2023-05-15T01:46:29.040Z,57.58
2023-05-15T01:49:03.315Z,57.93
2023-05-15T01:51:32.067Z,57.40
2023-05-15T01:54:00.428Z,57.61
2023-05-15T01:56:28.984Z,57.55
2023-05-15T01:58:57.442Z,57.78
2023-05-15T02:01:26.532Z,57.33
2023-05-15T02:03:55.587Z,57.60
2023-05-15T02:06:24.725Z,57.59
2023-05-15T02:08:55.348Z,57.72
2023-05-15T02:11:23.015Z,57.44
2023-05-15T02:13:51.950Z,57.24
2023-05-15T02:16:20.121Z,57.44
2023-05-15T02:18:48.435Z,57.32
2023-05-15T02:21:35.914Z,57.93
2023-05-15T02:24:04.177Z,56.68
2023-05-15T02:27:05.476Z,57.39
2023-05-15T02:29:51.795Z,56.28
2023-05-15T02:32:42.295Z,56.88
2023-05-15T02:35:32.056Z,56.76
2023-05-15T02:38:07.170Z,55.91
2023-05-15T02:40:37.571Z,56.08
2023-05-15T02:43:08.879Z,55.72
2023-05-15T02:45:36.960Z,55.60
2023-05-15T02:48:05.795Z,55.40
2023-05-15T02:50:34.107Z,55.17
2023-05-15T02:53:06.160Z,55.02
2023-05-15T02:55:34.672Z,55.03
2023-05-15T02:58:03.725Z,54.56
2023-05-15T03:00:31.247Z,53.94
2023-05-15T03:02:58.934Z,54.10
2023-05-15T03:05:27.084Z,53.88
2023-05-15T03:07:55.074Z,53.83
2023-05-15T03:10:24.377Z,53.43
2023-05-15T03:12:51.941Z,53.05
2023-05-15T03:15:20.343Z,52.98
2023-05-15T03:17:48.284Z,52.54
2023-05-15T03:20:16.520Z,52.62
2023-05-15T03:22:44.208Z,52.39
2023-05-15T03:25:13.372Z,52.22
2023-05-15T03:27:41.093Z,51.59
2023-05-15T03:30:09.283Z,51.48
2023-05-15T03:32:37.021Z,51.47
2023-05-15T03:35:04.936Z,51.08
2023-05-15T03:37:33.369Z,50.85
2023-05-15T03:40:01.153Z,50.50
2023-05-15T03:42:29.660Z,50.31
2023-05-15T03:44:57.440Z,49.77
2023-05-15T03:47:25.161Z,49.82
2023-05-15T03:49:54.110Z,49.39
2023-05-15T03:52:21.602Z,49.08
2023-05-15T03:54:50.593Z,48.15
2023-05-15T03:57:19.552Z,47.60
2023-05-15T03:59:47.108Z,47.57
2023-05-15T04:02:14.779Z,47.05
2023-05-15T04:04:42.389Z,46.84
2023-05-15T04:07:10.310Z,46.47
2023-05-15T04:09:38.862Z,46.21
2023-05-15T04:12:06.575Z,46.28
2023-05-15T04:14:34.172Z,45.95
2023-05-15T04:17:02.187Z,45.47
2023-05-15T04:19:29.906Z,45.35
2023-05-15T04:21:57.611Z,44.79
2023-05-15T04:24:26.483Z,44.90
2023-05-15T04:26:54.393Z,44.79
2023-05-15T04:29:22.139Z,44.91
2023-05-15T04:31:50.109Z,44.71
2023-05-15T04:34:18.887Z,44.52
2023-05-15T04:36:46.655Z,44.27
2023-05-15T04:39:14.464Z,44.02
2023-05-15T04:41:42.278Z,43.91
2023-05-15T04:44:10.054Z,43.82
2023-05-15T04:46:38.266Z,43.54
2023-05-15T04:49:06.814Z,43.48
2023-05-15T04:51:34.560Z,43.55
2023-05-15T04:54:02.402Z,43.08
2023-05-15T04:56:30.098Z,42.35
2023-05-15T04:58:57.829Z,41.91
2023-05-15T05:01:25.715Z,41.96
2023-05-15T05:03:53.344Z,41.38
2023-05-15T05:06:21.553Z,41.42
2023-05-15T05:08:49.285Z,41.00
2023-05-15T05:11:16.921Z,40.99
2023-05-15T05:13:44.408Z,40.91
2023-05-15T05:16:12.157Z,40.40
2023-05-15T05:18:39.781Z,40.06
2023-05-15T05:21:07.456Z,39.99
2023-05-15T05:23:35.077Z,39.28
2023-05-15T05:26:04.243Z,38.75
2023-05-15T05:28:33.815Z,38.67
2023-05-15T05:31:02.670Z,38.21
2023-05-15T05:33:30.477Z,38.14
2023-05-15T05:35:58.007Z,37.79
2023-05-15T05:38:27.731Z,37.34
2023-05-15T05:40:55.389Z,37.22
2023-05-15T05:43:22.936Z,37.26
2023-05-15T05:45:50.942Z,36.82
2023-05-15T05:48:18.534Z,36.65
2023-05-15T05:50:46.223Z,36.24
2023-05-15T05:53:13.727Z,36.17
2023-05-15T05:55:41.365Z,35.73
2023-05-15T05:58:15.120Z,35.60
2023-05-15T06:00:52.638Z,35.62
2023-05-15T06:03:21.555Z,35.39
2023-05-15T06:05:49.166Z,35.09
2023-05-15T06:08:17.101Z,35.05
2023-05-15T06:10:44.847Z,34.61
2023-05-15T06:13:14.844Z,34.14
2023-05-15T06:15:42.743Z,33.91
2023-05-15T06:18:10.420Z,34.10
2023-05-15T06:20:38.543Z,34.03
2023-05-15T06:23:06.094Z,33.92
2023-05-15T06:25:33.749Z,33.87
2023-05-15T06:28:01.417Z,33.56
2023-05-15T06:30:29.160Z,33.51
2023-05-15T06:32:56.756Z,33.04
2023-05-15T06:35:24.435Z,32.83
2023-05-15T06:37:53.196Z,32.57
2023-05-15T06:40:21.121Z,32.45
2023-05-15T06:42:48.858Z,32.77
2023-05-15T06:45:16.604Z,32.70
2023-05-15T06:47:44.387Z,32.73
2023-05-15T06:50:12.223Z,32.24
2023-05-15T06:52:40.041Z,31.97
2023-05-15T06:55:08.156Z,32.48
2023-05-15T06:57:35.989Z,32.53
2023-05-15T07:00:04.917Z,32.65
2023-05-15T07:02:34.509Z,31.94
2023-05-15T07:05:02.242Z,30.92
2023-05-15T07:07:32.599Z,30.46
2023-05-15T07:10:00.092Z,30.64
2023-05-15T07:12:27.707Z,30.96
2023-05-15T07:14:55.202Z,31.08
2023-05-15T07:17:22.892Z,30.37
2023-05-15T07:19:50.565Z,29.95
2023-05-15T07:22:18.260Z,28.99
2023-05-15T07:24:46.101Z,27.94
2023-05-15T07:27:13.780Z,27.18
2023-05-15T07:29:41.319Z,27.46
2023-05-15T07:32:22.344Z,27.73
2023-05-15T07:34:49.931Z,27.75
2023-05-15T07:37:17.470Z,27.53
2023-05-15T07:39:45.149Z,26.77
2023-05-15T07:42:12.906Z,26.25
2023-05-15T07:44:41.883Z,26.26
2023-05-15T07:47:12.044Z,25.34
2023-05-15T07:49:39.755Z,24.37
2023-05-15T07:52:07.554Z,23.45
2023-05-15T07:54:35.280Z,22.94
2023-05-15T07:57:02.974Z,22.16
2023-05-15T07:59:31.178Z,22.01
2023-05-15T08:01:58.751Z,21.23
2023-05-15T08:04:26.679Z,21.06
2023-05-15T08:06:54.361Z,20.56
2023-05-15T08:09:21.959Z,20.13
2023-05-15T08:11:49.642Z,19.63
2023-05-15T08:14:17.538Z,19.23
2023-05-15T08:16:45.150Z,18.95
2023-05-15T08:19:12.879Z,18.90
2023-05-15T08:21:40.993Z,18.45
2023-05-15T08:24:09.281Z,18.42
2023-05-15T08:26:36.886Z,18.19
2023-05-15T08:29:05.154Z,17.90
2023-05-15T08:31:33.191Z,17.71
2023-05-15T08:34:00.828Z,17.29
2023-05-15T08:36:28.598Z,17.59
2023-05-15T08:38:56.288Z,17.38
2023-05-15T08:41:40.661Z,17.11
2023-05-15T08:44:09.775Z,17.71
2023-05-15T08:46:37.551Z,16.95
2023-05-15T08:49:14.877Z,16.74
2023-05-15T08:51:42.816Z,17.07
2023-05-15T08:54:11.722Z,16.70
2023-05-15T08:56:39.542Z,16.20
2023-05-15T08:59:07.186Z,16.05
2023-05-15T09:01:36.163Z,15.98
2023-05-15T09:04:04.963Z,16.12
2023-05-15T09:06:33.979Z,15.84
2023-05-15T09:09:03.906Z,16.08
2023-05-15T09:11:32.387Z,15.70
2023-05-15T09:14:00.160Z,15.55
2023-05-15T09:16:28.099Z,15.59
2023-05-15T09:18:56.395Z,15.13
2023-05-15T09:21:29.617Z,15.11
2023-05-15T09:24:24.904Z,14.79
2023-05-15T09:27:06.957Z,14.93
2023-05-15T09:29:36.057Z,15.00
2023-05-15T09:32:06.508Z,14.69
2023-05-15T09:34:39.612Z,14.49
2023-05-15T09:37:09.968Z,14.09
2023-05-15T09:39:44.229Z,13.77
2023-05-15T09:42:14.355Z,13.47
2023-05-15T09:44:43.423Z,12.95
2023-05-15T09:47:13.861Z,12.50
2023-05-15T09:49:44.397Z,12.28
2023-05-15T09:52:12.151Z,12.16
2023-05-15T09:54:40.469Z,11.94
2023-05-15T09:57:10.240Z,12.13
2023-05-15T09:59:48.380Z,12.24
2023-05-15T10:02:31.795Z,11.94
2023-05-15T10:05:00.826Z,11.77
2023-05-15T10:07:36.281Z,11.35
2023-05-15T10:10:05.392Z,11.75
2023-05-15T10:12:36.711Z,11.46
2023-05-15T10:15:05.786Z,10.71
2023-05-15T10:17:36.970Z,10.93
2023-05-15T10:20:07.205Z,10.76
2023-05-15T10:22:42.126Z,10.58
2023-05-15T10:25:16.937Z,10.60
2023-05-15T10:27:46.714Z,11.04
2023-05-15T10:30:17.228Z,11.05
2023-05-15T10:32:45.960Z,11.16
2023-05-15T10:35:13.568Z,11.18
2023-05-15T10:37:41.316Z,11.44
2023-05-15T10:40:10.585Z,11.05
2023-05-15T10:42:38.731Z,10.75
2023-05-15T10:45:08.973Z,10.92
2023-05-15T10:47:41.084Z,10.28
2023-05-15T10:50:09.669Z,10.55
2023-05-15T10:52:38.667Z,10.28
2023-05-15T10:55:14.071Z,10.52
2023-05-15T10:57:42.064Z,10.89
2023-05-15T11:00:29.477Z,11.01
2023-05-15T11:02:58.870Z,10.74
2023-05-15T11:05:27.077Z,10.22
2023-05-15T11:08:16.104Z,10.29
2023-05-15T11:10:43.862Z,9.86
2023-05-15T11:13:12.239Z,9.41
2023-05-15T11:15:44.765Z,9.79
2023-05-15T11:18:13.345Z,9.72
2023-05-15T11:21:01.315Z,9.72
2023-05-15T11:23:28.943Z,9.76
2023-05-15T11:25:57.601Z,10.15
2023-05-15T11:28:30.005Z,11.13
2023-05-15T11:31:06.879Z,11.92
2023-05-15T11:33:34.737Z,11.51
2023-05-15T11:36:05.433Z,11.11
2023-05-15T11:38:39.101Z,11.01
2023-05-15T11:41:18.752Z,10.70
2023-05-15T11:43:46.837Z,10.58
2023-05-15T11:46:16.083Z,10.28
2023-05-15T11:48:47.937Z,10.53
2023-05-15T11:51:22.765Z,10.28
2023-05-15T11:53:52.023Z,10.46
2023-05-15T11:56:22.955Z,9.92
2023-05-15T11:58:58.420Z,10.27
2023-05-15T12:01:26.806Z,9.98
2023-05-15T12:03:55.224Z,10.35
2023-05-15T12:06:23.197Z,10.30
2023-05-15T12:08:52.954Z,10.49
2023-05-15T12:11:25.352Z,11.03
2023-05-15T12:13:54.990Z,10.93
2023-05-15T12:16:27.253Z,10.71
2023-05-15T12:18:57.411Z,10.75
2023-05-15T12:21:27.257Z,11.09
2023-05-15T12:26:29.367Z,11.50
2023-05-15T12:28:57.746Z,12.50
2023-05-15T12:31:25.709Z,12.94
2023-05-15T12:33:53.379Z,13.11
2023-05-15T12:36:22.029Z,13.59
2023-05-15T12:38:49.681Z,14.09
2023-05-15T12:41:20.492Z,14.96
2023-05-15T12:43:48.709Z,16.00
2023-05-15T12:46:16.252Z,16.42
2023-05-15T12:48:44.158Z,16.49
2023-05-15T12:51:11.725Z,16.66
2023-05-15T12:53:42.584Z,17.40
2023-05-15T12:56:10.347Z,17.59
2023-05-15T12:58:38.862Z,18.04
2023-05-15T13:01:06.644Z,18.87
2023-05-15T13:03:35.194Z,19.32
2023-05-15T13:06:03.864Z,19.48
2023-05-15T13:08:31.929Z,20.58
2023-05-15T13:11:01.126Z,20.64
2023-05-15T13:13:46.389Z,21.37
2023-05-15T13:16:25.246Z,21.25
2023-05-15T13:18:53.701Z,21.12
2023-05-15T13:21:21.616Z,21.40
2023-05-15T13:23:49.329Z,21.63
2023-05-15T13:26:17.207Z,21.81
2023-05-15T13:28:45.011Z,22.12
2023-05-15T13:31:12.802Z,22.01
2023-05-15T13:33:40.680Z,22.08
2023-05-15T13:36:08.684Z,23.53
2023-05-15T13:38:36.380Z,23.22
2023-05-15T13:41:05.145Z,23.12
2023-05-15T13:43:32.988Z,23.40
2023-05-15T13:46:00.705Z,24.02
2023-05-15T13:48:28.321Z,23.74
2023-05-15T13:50:56.208Z,23.82
2023-05-15T13:53:23.949Z,23.80
2023-05-15T13:55:51.670Z,23.94
2023-05-15T13:58:19.693Z,23.69
2023-05-15T14:00:48.714Z,23.80
2023-05-15T14:03:16.456Z,23.74
2023-05-15T14:05:44.417Z,23.99
2023-05-15T14:08:12.249Z,24.21
2023-05-15T14:10:39.767Z,24.87
2023-05-15T14:13:07.502Z,24.92
2023-05-15T14:15:35.117Z,24.60
2023-05-15T14:18:02.806Z,24.89
2023-05-15T14:20:30.578Z,25.08
2023-05-15T14:22:58.327Z,25.29
2023-05-15T14:25:25.965Z,24.63
2023-05-15T14:27:53.620Z,24.75
2023-05-15T14:30:22.151Z,24.61
2023-05-15T14:32:49.854Z,24.91
2023-05-15T14:35:17.519Z,24.91
2023-05-15T14:37:45.374Z,25.32
2023-05-15T14:40:13.465Z,25.00
2023-05-15T14:42:41.136Z,25.09
2023-05-15T14:45:09.300Z,25.25
2023-05-15T14:47:37.033Z,25.42
2023-05-15T14:50:05.064Z,25.36
2023-05-15T14:52:33.039Z,25.34
2023-05-15T14:55:09.247Z,25.53
2023-05-15T14:57:40.770Z,25.51
2023-05-15T15:00:09.707Z,25.58
2023-05-15T15:02:37.590Z,25.54
2023-05-15T15:05:05.786Z,25.55
2023-05-15T15:08:02.140Z,25.92
2023-05-15T15:10:30.893Z,25.99
2023-05-15T15:12:59.142Z,25.91
2023-05-15T15:15:27.207Z,26.05
2023-05-15T15:17:57.405Z,26.05
2023-05-15T15:20:27.169Z,26.32
2023-05-15T15:22:55.827Z,26.21
2023-05-15T15:25:23.567Z,26.42
2023-05-15T15:27:51.473Z,26.34
2023-05-15T15:30:19.367Z,26.34
2023-05-15T15:32:47.271Z,26.42
2023-05-15T15:35:15.101Z,26.45
2023-05-15T15:37:42.795Z,26.37
2023-05-15T15:40:11.146Z,26.77
2023-05-15T15:42:38.889Z,26.51
2023-05-15T15:45:07.022Z,26.60
2023-05-15T15:47:35.519Z,26.73
2023-05-15T15:50:03.391Z,26.65
2023-05-15T15:52:33.349Z,26.77
2023-05-15T15:55:01.097Z,27.10
2023-05-15T15:57:30.161Z,26.97
2023-05-15T15:59:58.302Z,27.09
2023-05-15T16:02:26.022Z,27.26
2023-05-15T16:04:53.664Z,27.06
2023-05-15T16:07:21.537Z,27.28
2023-05-15T16:09:56.879Z,27.12
2023-05-15T16:12:37.013Z,27.30
2023-05-15T16:15:20.977Z,27.30
2023-05-15T16:17:52.980Z,27.54
2023-05-15T16:20:21.340Z,27.48
2023-05-15T16:22:48.980Z,27.49
2023-05-15T16:25:16.536Z,28.19
2023-05-15T16:27:44.088Z,27.68
2023-05-15T16:30:12.412Z,27.80
2023-05-15T16:32:40.651Z,27.68
2023-05-15T16:35:08.945Z,28.03
2023-05-15T16:37:36.801Z,27.98
2023-05-15T16:40:04.945Z,28.08
2023-05-15T16:42:37.140Z,28.34
2023-05-15T16:45:05.747Z,28.13
2023-05-15T16:47:34.174Z,28.43
2023-05-15T16:50:01.917Z,28.52
2023-05-15T16:52:31.930Z,28.50
2023-05-15T16:54:59.642Z,28.75
2023-05-15T16:57:27.427Z,28.75
2023-05-15T16:59:56.552Z,28.76
2023-05-15T17:02:24.320Z,28.96
2023-05-15T17:04:53.374Z,28.88
2023-05-15T17:07:21.365Z,28.63
2023-05-15T17:09:48.975Z,29.21
2023-05-15T17:12:16.988Z,28.94
2023-05-15T17:14:44.671Z,29.19
2023-05-15T17:17:12.397Z,29.46
2023-05-15T17:19:40.078Z,29.62
2023-05-15T17:22:07.822Z,29.55
2023-05-15T17:24:49.417Z,29.85
2023-05-15T17:27:20.584Z,29.83
2023-05-15T17:29:49.002Z,29.86
2023-05-15T17:32:18.291Z,30.04
2023-05-15T17:34:46.995Z,30.28
2023-05-15T17:37:16.150Z,30.08
2023-05-15T17:39:43.855Z,30.31
2023-05-15T17:42:11.634Z,30.47
2023-05-15T17:44:39.370Z,30.58
2023-05-15T17:47:07.892Z,30.66
2023-05-15T17:49:36.006Z,31.10
2023-05-15T17:52:03.782Z,31.10
2023-05-15T17:54:31.425Z,31.39
2023-05-15T17:56:59.103Z,31.39
2023-05-15T17:59:26.724Z,31.54
2023-05-15T18:01:54.589Z,31.22
2023-05-15T18:04:22.293Z,31.81
2023-05-15T18:06:51.126Z,31.95
2023-05-15T18:09:23.131Z,31.85
2023-05-15T18:11:52.262Z,32.65
2023-05-15T18:14:20.251Z,32.41
2023-05-15T18:16:47.838Z,32.40
2023-05-15T18:19:15.626Z,32.54
2023-05-15T18:21:43.268Z,32.67
2023-05-15T18:24:12.367Z,33.13
2023-05-15T18:26:40.050Z,33.34
2023-05-15T18:29:07.867Z,33.36
2023-05-15T18:31:36.635Z,33.23
2023-05-15T18:34:05.592Z,33.50
2023-05-15T18:36:33.463Z,33.80
2023-05-15T18:39:02.674Z,33.92
2023-05-15T18:41:31.458Z,33.71
2023-05-15T18:43:59.122Z,33.57
2023-05-15T18:46:28.399Z,33.45
2023-05-15T18:48:56.373Z,33.80
2023-05-15T18:51:24.057Z,34.60
2023-05-15T18:53:52.059Z,34.76
2023-05-15T18:56:19.618Z,35.09
2023-05-15T18:58:47.511Z,35.28
2023-05-15T19:01:15.394Z,35.60
2023-05-15T19:03:43.114Z,35.81
2023-05-15T19:06:11.649Z,36.00
2023-05-15T19:08:39.254Z,35.94
2023-05-15T19:11:08.844Z,36.19
2023-05-15T19:13:36.575Z,36.14
2023-05-15T19:16:06.180Z,36.33
2023-05-15T19:18:34.032Z,36.28
2023-05-15T19:21:01.697Z,36.48
2023-05-15T19:23:29.419Z,36.58
2023-05-15T19:25:57.099Z,36.59
2023-05-15T19:28:24.713Z,36.67
2023-05-15T19:30:52.276Z,36.58
2023-05-15T19:33:19.943Z,36.61
2023-05-15T19:35:47.751Z,36.74
2023-05-15T19:38:15.591Z,36.73
2023-05-15T19:40:45.306Z,37.28
2023-05-15T19:43:14.315Z,37.16
2023-05-15T19:45:42.429Z,37.27
2023-05-15T19:48:10.226Z,37.63
2023-05-15T19:50:41.134Z,37.97
2023-05-15T19:53:08.957Z,37.98
2023-05-15T19:55:36.565Z,37.83
2023-05-15T19:58:04.412Z,37.97
2023-05-15T20:00:32.560Z,38.46
2023-05-15T20:03:01.018Z,38.72
2023-05-15T20:05:28.983Z,38.43
2023-05-15T20:07:56.594Z,38.73
2023-05-15T20:10:24.864Z,39.05
2023-05-15T20:12:52.685Z,39.27
2023-05-15T20:15:20.538Z,38.72
2023-05-15T20:17:48.298Z,38.40
2023-05-15T20:20:16.747Z,38.67
2023-05-15T20:22:44.875Z,39.10
2023-05-15T20:25:12.879Z,39.74
2023-05-15T20:27:40.540Z,39.97
2023-05-15T20:30:08.770Z,40.05
2023-05-15T20:32:37.315Z,40.13
2023-05-15T20:35:06.168Z,40.23
2023-05-15T20:37:34.642Z,40.49
2023-05-15T20:40:02.334Z,40.85
2023-05-15T20:42:30.257Z,40.99
2023-05-15T20:44:57.900Z,41.03
2023-05-15T20:47:25.851Z,41.66
2023-05-15T20:49:53.824Z,41.53
2023-05-15T20:52:21.739Z,41.56
2023-05-15T20:54:49.432Z,41.68
2023-05-15T20:57:17.004Z,41.71
2023-05-15T20:59:44.827Z,41.85
2023-05-15T21:02:12.400Z,41.70
2023-05-15T21:04:39.959Z,42.11
2023-05-15T21:07:08.297Z,42.14
2023-05-15T21:09:36.018Z,42.21
2023-05-15T21:12:04.254Z,42.48
2023-05-15T21:14:32.109Z,42.56
2023-05-15T21:16:59.899Z,42.69
2023-05-15T21:19:27.802Z,42.95
2023-05-15T21:21:55.799Z,43.04
2023-05-15T21:24:23.510Z,42.85
2023-05-15T21:26:51.351Z,42.88
2023-05-15T21:29:19.080Z,42.89
2023-05-15T21:31:47.010Z,42.85
2023-05-15T21:34:14.700Z,43.20
2023-05-15T21:36:43.702Z,43.14
2023-05-15T21:39:11.676Z,43.26
2023-05-15T21:41:39.237Z,43.19
2023-05-15T21:44:07.101Z,43.20
2023-05-15T21:46:35.329Z,43.33
2023-05-15T21:49:03.550Z,43.47
2023-05-15T21:51:31.201Z,43.60
2023-05-15T21:53:58.724Z,43.51
2023-05-15T21:56:26.673Z,43.87
2023-05-15T21:58:54.335Z,43.90
2023-05-15T22:01:21.933Z,44.22
2023-05-15T22:03:49.752Z,44.46
2023-05-15T22:06:17.485Z,44.53
2023-05-15T22:08:45.077Z,44.67
2023-05-15T22:11:12.706Z,44.87
2023-05-15T22:13:40.307Z,44.97
2023-05-15T22:16:08.054Z,44.91
2023-05-15T22:18:35.802Z,45.02
2023-05-15T22:21:03.549Z,45.27
2023-05-15T22:23:32.270Z,45.09
2023-05-15T22:25:59.933Z,45.28
2023-05-15T22:28:27.602Z,45.29
2023-05-15T22:30:55.099Z,45.53
2023-05-15T22:33:25.806Z,45.50
2023-05-15T22:35:53.790Z,45.35
2023-05-15T22:38:21.412Z,45.59
2023-05-15T22:40:52.793Z,46.20
2023-05-15T22:43:22.168Z,45.88
2023-05-15T22:45:50.157Z,45.89
2023-05-15T22:48:17.951Z,45.81
2023-05-15T22:50:45.647Z,45.99
2023-05-15T22:53:13.523Z,46.12
2023-05-15T22:55:41.629Z,46.18
2023-05-15T22:58:09.490Z,46.13
2023-05-15T23:00:37.311Z,46.18
2023-05-15T23:03:05.184Z,46.21
2023-05-15T23:05:32.840Z,46.27
2023-05-15T23:08:00.534Z,46.41
2023-05-15T23:10:28.393Z,46.52
2023-05-15T23:12:58.763Z,46.67
2023-05-15T23:15:26.360Z,46.74
2023-05-15T23:17:54.127Z,46.45
2023-05-15T23:20:21.757Z,46.44
2023-05-15T23:22:49.528Z,46.76
2023-05-15T23:25:17.160Z,46.59
2023-05-15T23:27:44.829Z,46.63
2023-05-15T23:30:12.731Z,46.64
2023-05-15T23:32:40.346Z,46.60
2023-05-15T23:35:08.406Z,46.55
2023-05-15T23:37:36.034Z,46.69
2023-05-15T23:40:05.440Z,46.53
2023-05-15T23:42:33.102Z,46.21
2023-05-15T23:45:00.808Z,46.51
2023-05-15T23:47:28.506Z,46.76
2023-05-15T23:49:56.175Z,46.83
2023-05-15T23:52:23.819Z,46.71
2023-05-15T23:54:51.521Z,46.43
2023-05-15T23:57:19.051Z,46.45
2023-05-15T23:59:46.559Z,46.43
